sensor_id;sensor_type;location;lat;lon;timestamp;pressure;altitude;pressure_sealevel;temperature;humidity
60611;BME280;46439;51.164;13.572;2024-03-02T00:01:11;99205.80;;;11.70;100.00
60611;BME280;46439;51.164;13.572;2024-03-02T00:03:39;99209.34;;;11.57;100.00
60611;BME280;46439;51.164;13.572;2024-03-02T00:06:08;99208.11;;;11.60;100.00
60611;BME280;46439;51.164;13.572;2024-03-02T00:08:36;99208.79;;;11.63;100.00
60611;BME280;46439;51.164;13.572;2024-03-02T00:11:05;99209.59;;;11.70;100.00
60611;BME280;46439;51.164;13.572;2024-03-02T00:13:33;99206.52;;;11.72;100.00
60611;BME280;46439;51.164;13.572;2024-03-02T00:16:03;99204.75;;;11.62;100.00
60611;BME280;46439;51.164;13.572;2024-03-02T00:18:35;99203.34;;;11.66;100.00
60611;BME280;46439;51.164;13.572;2024-03-02T00:21:07;99203.93;;;11.71;100.00
60611;BME280;46439;51.164;13.572;2024-03-02T00:23:38;99201.09;;;11.63;100.00
60611;BME280;46439;51.164;13.572;2024-03-02T00:26:07;99202.27;;;11.64;100.00
60611;BME280;46439;51.164;13.572;2024-03-02T00:28:40;99197.18;;;11.66;100.00
60611;BME280;46439;51.164;13.572;2024-03-02T00:31:12;99195.88;;;11.78;100.00
60611;BME280;46439;51.164;13.572;2024-03-02T00:33:42;99196.45;;;11.89;100.00
60611;BME280;46439;51.164;13.572;2024-03-02T00:36:13;99191.62;;;11.89;100.00
60611;BME280;46439;51.164;13.572;2024-03-02T00:38:48;99197.86;;;11.89;100.00
60611;BME280;46439;51.164;13.572;2024-03-02T00:41:20;99192.23;;;11.87;100.00
60611;BME280;46439;51.164;13.572;2024-03-02T00:43:49;99191.19;;;11.80;100.00
60611;BME280;46439;51.164;13.572;2024-03-02T00:46:22;99188.67;;;11.74;100.00
60611;BME280;46439;51.164;13.572;2024-03-02T00:48:56;99191.08;;;11.72;100.00
60611;BME280;46439;51.164;13.572;2024-03-02T00:51:26;99194.77;;;11.79;100.00
60611;BME280;46439;51.164;13.572;2024-03-02T00:53:58;99195.67;;;11.84;100.00
60611;BME280;46439;51.164;13.572;2024-03-02T00:56:27;99202.15;;;11.90;100.00
60611;BME280;46439;51.164;13.572;2024-03-02T00:58:55;99203.43;;;11.87;100.00
60611;BME280;46439;51.164;13.572;2024-03-02T01:01:24;99205.45;;;11.85;100.00
60611;BME280;46439;51.164;13.572;2024-03-02T01:03:52;99205.80;;;11.88;100.00
60611;BME280;46439;51.164;13.572;2024-03-02T01:06:20;99206.54;;;11.88;100.00
60611;BME280;46439;51.164;13.572;2024-03-02T01:08:50;99206.85;;;11.97;100.00
60611;BME280;46439;51.164;13.572;2024-03-02T01:11:19;99210.14;;;12.03;100.00
60611;BME280;46439;51.164;13.572;2024-03-02T01:13:49;99209.17;;;12.05;100.00
60611;BME280;46439;51.164;13.572;2024-03-02T01:16:17;99204.77;;;12.05;100.00
60611;BME280;46439;51.164;13.572;2024-03-02T01:18:45;99208.67;;;12.05;100.00
60611;BME280;46439;51.164;13.572;2024-03-02T01:21:14;99210.63;;;12.03;100.00
60611;BME280;46439;51.164;13.572;2024-03-02T01:23:42;99211.42;;;12.07;100.00
60611;BME280;46439;51.164;13.572;2024-03-02T01:26:11;99211.42;;;12.08;100.00
60611;BME280;46439;51.164;13.572;2024-03-02T01:28:39;99205.57;;;12.11;100.00
60611;BME280;46439;51.164;13.572;2024-03-02T01:31:07;99202.16;;;12.14;100.00
60611;BME280;46439;51.164;13.572;2024-03-02T01:33:35;99201.03;;;12.18;100.00
60611;BME280;46439;51.164;13.572;2024-03-02T01:36:05;99198.11;;;12.22;100.00
60611;BME280;46439;51.164;13.572;2024-03-02T01:38:33;99197.08;;;12.28;100.00
60611;BME280;46439;51.164;13.572;2024-03-02T01:41:01;99195.79;;;12.21;100.00
60611;BME280;46439;51.164;13.572;2024-03-02T01:43:30;99197.20;;;12.23;100.00
60611;BME280;46439;51.164;13.572;2024-03-02T01:45:58;99188.70;;;12.22;100.00
60611;BME280;46439;51.164;13.572;2024-03-02T01:48:26;99186.95;;;12.22;100.00
60611;BME280;46439;51.164;13.572;2024-03-02T01:50:54;99182.59;;;12.20;100.00
60611;BME280;46439;51.164;13.572;2024-03-02T01:53:23;99185.96;;;12.22;100.00
60611;BME280;46439;51.164;13.572;2024-03-02T01:55:51;99184.13;;;12.29;100.00
60611;BME280;46439;51.164;13.572;2024-03-02T01:58:20;99179.91;;;12.29;100.00
60611;BME280;46439;51.164;13.572;2024-03-02T02:00:48;99183.38;;;12.26;100.00
60611;BME280;46439;51.164;13.572;2024-03-02T02:03:16;99183.38;;;12.22;100.00
60611;BME280;46439;51.164;13.572;2024-03-02T02:05:44;99184.75;;;12.21;100.00
60611;BME280;46439;51.164;13.572;2024-03-02T02:08:13;99186.13;;;12.23;100.00
60611;BME280;46439;51.164;13.572;2024-03-02T02:10:41;99186.75;;;12.28;100.00
60611;BME280;46439;51.164;13.572;2024-03-02T02:13:10;99184.67;;;12.30;100.00
60611;BME280;46439;51.164;13.572;2024-03-02T02:15:38;99182.88;;;12.26;100.00
60611;BME280;46439;51.164;13.572;2024-03-02T02:18:07;99182.08;;;12.25;100.00
60611;BME280;46439;51.164;13.572;2024-03-02T02:20:35;99181.95;;;12.28;100.00
60611;BME280;46439;51.164;13.572;2024-03-02T02:23:03;99176.23;;;12.26;100.00
60611;BME280;46439;51.164;13.572;2024-03-02T02:25:33;99171.27;;;12.22;100.00
60611;BME280;46439;51.164;13.572;2024-03-02T02:28:02;99167.48;;;12.22;100.00
60611;BME280;46439;51.164;13.572;2024-03-02T02:30:31;99165.40;;;12.27;100.00
60611;BME280;46439;51.164;13.572;2024-03-02T02:33:00;99161.44;;;12.23;100.00
60611;BME280;46439;51.164;13.572;2024-03-02T02:35:28;99166.14;;;12.22;100.00
60611;BME280;46439;51.164;13.572;2024-03-02T02:37:59;99169.69;;;12.25;100.00
60611;BME280;46439;51.164;13.572;2024-03-02T02:40:28;99170.39;;;12.26;100.00
60611;BME280;46439;51.164;13.572;2024-03-02T02:42:59;99174.96;;;12.24;100.00
60611;BME280;46439;51.164;13.572;2024-03-02T02:45:27;99176.92;;;12.21;100.00
60611;BME280;46439;51.164;13.572;2024-03-02T02:47:55;99178.73;;;12.18;100.00
60611;BME280;46439;51.164;13.572;2024-03-02T02:50:23;99172.17;;;12.25;100.00
60611;BME280;46439;51.164;13.572;2024-03-02T02:52:51;99173.67;;;12.28;100.00
60611;BME280;46439;51.164;13.572;2024-03-02T02:55:19;99174.55;;;12.39;100.00
60611;BME280;46439;51.164;13.572;2024-03-02T02:57:48;99171.71;;;12.47;100.00
60611;BME280;46439;51.164;13.572;2024-03-02T03:00:17;99180.29;;;12.41;100.00
60611;BME280;46439;51.164;13.572;2024-03-02T03:02:48;99179.58;;;12.42;100.00
60611;BME280;46439;51.164;13.572;2024-03-02T03:05:17;99178.80;;;12.42;100.00
60611;BME280;46439;51.164;13.572;2024-03-02T03:07:45;99176.80;;;12.39;100.00
60611;BME280;46439;51.164;13.572;2024-03-02T03:10:14;99172.14;;;12.37;100.00
60611;BME280;46439;51.164;13.572;2024-03-02T03:12:42;99169.85;;;12.21;100.00
60611;BME280;46439;51.164;13.572;2024-03-02T03:15:11;99168.77;;;12.18;100.00
60611;BME280;46439;51.164;13.572;2024-03-02T03:17:40;99167.65;;;12.15;100.00
60611;BME280;46439;51.164;13.572;2024-03-02T03:20:09;99165.23;;;12.15;100.00
60611;BME280;46439;51.164;13.572;2024-03-02T03:22:38;99164.23;;;12.19;100.00
60611;BME280;46439;51.164;13.572;2024-03-02T03:25:07;99158.40;;;12.20;100.00
60611;BME280;46439;51.164;13.572;2024-03-02T03:27:38;99155.98;;;12.25;100.00
60611;BME280;46439;51.164;13.572;2024-03-02T03:30:08;99155.54;;;12.18;100.00
60611;BME280;46439;51.164;13.572;2024-03-02T03:32:36;99156.58;;;12.15;100.00
60611;BME280;46439;51.164;13.572;2024-03-02T03:35:06;99160.41;;;11.98;100.00
60611;BME280;46439;51.164;13.572;2024-03-02T03:37:34;99164.48;;;11.94;100.00
60611;BME280;46439;51.164;13.572;2024-03-02T03:40:04;99162.47;;;11.92;100.00
60611;BME280;46439;51.164;13.572;2024-03-02T03:42:37;99158.23;;;11.95;100.00
60611;BME280;46439;51.164;13.572;2024-03-02T03:45:07;99154.69;;;11.93;100.00
60611;BME280;46439;51.164;13.572;2024-03-02T03:47:42;99155.20;;;12.04;100.00
60611;BME280;46439;51.164;13.572;2024-03-02T03:50:11;99151.09;;;11.98;100.00
60611;BME280;46439;51.164;13.572;2024-03-02T03:52:40;99153.49;;;11.98;100.00
60611;BME280;46439;51.164;13.572;2024-03-02T03:55:09;99156.33;;;12.02;100.00
60611;BME280;46439;51.164;13.572;2024-03-02T03:57:38;99161.11;;;12.04;100.00
60611;BME280;46439;51.164;13.572;2024-03-02T04:00:08;99165.08;;;12.07;100.00
60611;BME280;46439;51.164;13.572;2024-03-02T04:02:38;99163.57;;;12.10;100.00
60611;BME280;46439;51.164;13.572;2024-03-02T04:05:07;99160.81;;;12.09;100.00
60611;BME280;46439;51.164;13.572;2024-03-02T04:07:37;99161.81;;;12.08;100.00
60611;BME280;46439;51.164;13.572;2024-03-02T04:10:09;99160.83;;;12.11;100.00
60611;BME280;46439;51.164;13.572;2024-03-02T04:12:38;99168.20;;;12.13;100.00
60611;BME280;46439;51.164;13.572;2024-03-02T04:15:07;99169.44;;;12.13;100.00
60611;BME280;46439;51.164;13.572;2024-03-02T04:17:36;99176.77;;;12.18;100.00
60611;BME280;46439;51.164;13.572;2024-03-02T04:20:06;99176.89;;;12.18;100.00
60611;BME280;46439;51.164;13.572;2024-03-02T04:22:35;99179.63;;;12.19;100.00
60611;BME280;46439;51.164;13.572;2024-03-02T04:25:04;99182.63;;;12.18;100.00
60611;BME280;46439;51.164;13.572;2024-03-02T04:27:32;99185.30;;;12.17;100.00
60611;BME280;46439;51.164;13.572;2024-03-02T04:30:01;99196.02;;;12.18;100.00
60611;BME280;46439;51.164;13.572;2024-03-02T04:32:29;99196.41;;;12.12;100.00
60611;BME280;46439;51.164;13.572;2024-03-02T04:35:06;99196.02;;;12.06;100.00
60611;BME280;46439;51.164;13.572;2024-03-02T04:37:36;99193.52;;;12.02;100.00
60611;BME280;46439;51.164;13.572;2024-03-02T04:40:05;99195.95;;;12.00;100.00
60611;BME280;46439;51.164;13.572;2024-03-02T04:42:36;99195.56;;;11.97;100.00
60611;BME280;46439;51.164;13.572;2024-03-02T04:45:05;99192.58;;;11.97;100.00
60611;BME280;46439;51.164;13.572;2024-03-02T04:47:33;99197.65;;;11.99;100.00
60611;BME280;46439;51.164;13.572;2024-03-02T04:50:02;99196.32;;;12.00;100.00
60611;BME280;46439;51.164;13.572;2024-03-02T04:52:30;99199.73;;;11.99;100.00
60611;BME280;46439;51.164;13.572;2024-03-02T04:54:58;99195.77;;;11.94;100.00
60611;BME280;46439;51.164;13.572;2024-03-02T04:57:46;99202.27;;;11.90;100.00
60611;BME280;46439;51.164;13.572;2024-03-02T05:00:16;99207.02;;;11.76;100.00
60611;BME280;46439;51.164;13.572;2024-03-02T05:02:45;99209.97;;;11.70;100.00
60611;BME280;46439;51.164;13.572;2024-03-02T05:05:13;99215.40;;;11.67;100.00
60611;BME280;46439;51.164;13.572;2024-03-02T05:07:43;99211.71;;;11.72;100.00
60611;BME280;46439;51.164;13.572;2024-03-02T05:10:12;99216.66;;;11.71;100.00
60611;BME280;46439;51.164;13.572;2024-03-02T05:12:40;99218.90;;;11.86;100.00
60611;BME280;46439;51.164;13.572;2024-03-02T05:15:12;99220.23;;;11.86;100.00
60611;BME280;46439;51.164;13.572;2024-03-02T05:17:41;99227.07;;;11.95;100.00
60611;BME280;46439;51.164;13.572;2024-03-02T05:20:12;99236.15;;;11.92;100.00
60611;BME280;46439;51.164;13.572;2024-03-02T05:22:41;99243.24;;;11.95;100.00
60611;BME280;46439;51.164;13.572;2024-03-02T05:25:09;99246.90;;;11.87;100.00
60611;BME280;46439;51.164;13.572;2024-03-02T05:27:38;99246.52;;;11.85;100.00
60611;BME280;46439;51.164;13.572;2024-03-02T05:30:09;99251.64;;;11.93;100.00
60611;BME280;46439;51.164;13.572;2024-03-02T05:32:37;99248.45;;;11.90;100.00
60611;BME280;46439;51.164;13.572;2024-03-02T05:35:07;99246.97;;;11.89;100.00
60611;BME280;46439;51.164;13.572;2024-03-02T05:37:35;99253.98;;;11.94;100.00
60611;BME280;46439;51.164;13.572;2024-03-02T05:40:05;99258.23;;;12.04;100.00
60611;BME280;46439;51.164;13.572;2024-03-02T05:42:33;99257.71;;;12.09;100.00
60611;BME280;46439;51.164;13.572;2024-03-02T05:45:02;99260.38;;;12.11;100.00
60611;BME280;46439;51.164;13.572;2024-03-02T05:47:30;99261.59;;;12.16;100.00
60611;BME280;46439;51.164;13.572;2024-03-02T05:49:58;99259.60;;;12.19;100.00
60611;BME280;46439;51.164;13.572;2024-03-02T05:52:26;99260.55;;;12.19;100.00
60611;BME280;46439;51.164;13.572;2024-03-02T05:54:54;99261.63;;;12.10;100.00
60611;BME280;46439;51.164;13.572;2024-03-02T05:57:22;99266.54;;;12.10;100.00
60611;BME280;46439;51.164;13.572;2024-03-02T06:00:10;99270.34;;;12.18;100.00
60611;BME280;46439;51.164;13.572;2024-03-02T06:02:41;99270.14;;;12.25;100.00
60611;BME280;46439;51.164;13.572;2024-03-02T06:05:09;99272.85;;;12.29;100.00
60611;BME280;46439;51.164;13.572;2024-03-02T06:07:37;99275.98;;;12.27;100.00
60611;BME280;46439;51.164;13.572;2024-03-02T06:10:07;99279.42;;;12.36;100.00
60611;BME280;46439;51.164;13.572;2024-03-02T06:12:36;99283.70;;;12.38;100.00
60611;BME280;46439;51.164;13.572;2024-03-02T06:15:06;99282.81;;;12.38;100.00
60611;BME280;46439;51.164;13.572;2024-03-02T06:17:36;99292.48;;;12.40;100.00
60611;BME280;46439;51.164;13.572;2024-03-02T06:20:05;99295.68;;;12.43;100.00
60611;BME280;46439;51.164;13.572;2024-03-02T06:22:36;99298.77;;;12.40;100.00
60611;BME280;46439;51.164;13.572;2024-03-02T06:25:05;99300.71;;;12.35;100.00
60611;BME280;46439;51.164;13.572;2024-03-02T06:27:33;99300.95;;;12.28;100.00
60611;BME280;46439;51.164;13.572;2024-03-02T06:30:01;99305.78;;;12.28;100.00
60611;BME280;46439;51.164;13.572;2024-03-02T06:32:29;99307.95;;;12.31;100.00
60611;BME280;46439;51.164;13.572;2024-03-02T06:34:57;99309.24;;;12.34;100.00
60611;BME280;46439;51.164;13.572;2024-03-02T06:37:25;99309.38;;;12.38;100.00
60611;BME280;46439;51.164;13.572;2024-03-02T06:39:53;99307.72;;;12.41;100.00
60611;BME280;46439;51.164;13.572;2024-03-02T06:42:21;99308.41;;;12.41;100.00
60611;BME280;46439;51.164;13.572;2024-03-02T06:44:49;99310.73;;;12.39;100.00
60611;BME280;46439;51.164;13.572;2024-03-02T06:47:18;99306.22;;;12.39;100.00
60611;BME280;46439;51.164;13.572;2024-03-02T06:49:48;99305.22;;;12.40;100.00
60611;BME280;46439;51.164;13.572;2024-03-02T06:52:16;99309.05;;;12.41;100.00
60611;BME280;46439;51.164;13.572;2024-03-02T06:54:44;99309.30;;;12.43;100.00
60611;BME280;46439;51.164;13.572;2024-03-02T06:57:12;99312.75;;;12.46;100.00
60611;BME280;46439;51.164;13.572;2024-03-02T06:59:40;99313.55;;;12.46;100.00
60611;BME280;46439;51.164;13.572;2024-03-02T07:02:08;99319.26;;;12.47;100.00
60611;BME280;46439;51.164;13.572;2024-03-02T07:04:36;99322.51;;;12.50;100.00
60611;BME280;46439;51.164;13.572;2024-03-02T07:07:05;99323.09;;;12.51;100.00
60611;BME280;46439;51.164;13.572;2024-03-02T07:09:33;99327.09;;;12.54;100.00
60611;BME280;46439;51.164;13.572;2024-03-02T07:12:01;99329.66;;;12.50;100.00
60611;BME280;46439;51.164;13.572;2024-03-02T07:14:29;99333.58;;;12.53;100.00
60611;BME280;46439;51.164;13.572;2024-03-02T07:17:15;99331.96;;;12.51;100.00
60611;BME280;46439;51.164;13.572;2024-03-02T07:19:43;99333.05;;;12.52;100.00
60611;BME280;46439;51.164;13.572;2024-03-02T07:22:11;99336.24;;;12.56;100.00
60611;BME280;46439;51.164;13.572;2024-03-02T07:24:43;99338.89;;;12.55;100.00
60611;BME280;46439;51.164;13.572;2024-03-02T07:27:11;99343.16;;;12.53;100.00
60611;BME280;46439;51.164;13.572;2024-03-02T07:29:40;99345.05;;;12.61;100.00
60611;BME280;46439;51.164;13.572;2024-03-02T07:32:09;99345.48;;;12.65;100.00
60611;BME280;46439;51.164;13.572;2024-03-02T07:34:38;99344.92;;;12.70;100.00
60611;BME280;46439;51.164;13.572;2024-03-02T07:37:06;99343.89;;;12.63;100.00
60611;BME280;46439;51.164;13.572;2024-03-02T07:39:34;99346.02;;;12.69;100.00
60611;BME280;46439;51.164;13.572;2024-03-02T07:42:02;99348.09;;;12.69;100.00
60611;BME280;46439;51.164;13.572;2024-03-02T07:44:30;99352.06;;;12.68;100.00
60611;BME280;46439;51.164;13.572;2024-03-02T07:46:58;99350.48;;;12.65;100.00
60611;BME280;46439;51.164;13.572;2024-03-02T07:49:26;99357.02;;;12.66;100.00
60611;BME280;46439;51.164;13.572;2024-03-02T07:51:54;99359.14;;;12.70;100.00
60611;BME280;46439;51.164;13.572;2024-03-02T07:54:23;99362.39;;;12.74;100.00
60611;BME280;46439;51.164;13.572;2024-03-02T07:56:51;99364.81;;;12.86;100.00
60611;BME280;46439;51.164;13.572;2024-03-02T07:59:20;99366.22;;;12.87;100.00
60611;BME280;46439;51.164;13.572;2024-03-02T08:01:50;99369.27;;;12.89;100.00
60611;BME280;46439;51.164;13.572;2024-03-02T08:04:19;99368.52;;;12.91;100.00
60611;BME280;46439;51.164;13.572;2024-03-02T08:06:48;99366.06;;;12.91;100.00
60611;BME280;46439;51.164;13.572;2024-03-02T08:09:16;99366.17;;;12.96;100.00
60611;BME280;46439;51.164;13.572;2024-03-02T08:11:44;99367.23;;;12.95;100.00
60611;BME280;46439;51.164;13.572;2024-03-02T08:14:12;99369.19;;;13.03;100.00
60611;BME280;46439;51.164;13.572;2024-03-02T08:16:41;99371.15;;;13.08;100.00
60611;BME280;46439;51.164;13.572;2024-03-02T08:19:09;99373.86;;;13.09;100.00
60611;BME280;46439;51.164;13.572;2024-03-02T08:21:38;99377.02;;;13.12;100.00
60611;BME280;46439;51.164;13.572;2024-03-02T08:24:07;99388.11;;;13.14;100.00
60611;BME280;46439;51.164;13.572;2024-03-02T08:26:35;99392.11;;;13.08;99.89
60611;BME280;46439;51.164;13.572;2024-03-02T08:29:03;99389.19;;;13.05;98.73
60611;BME280;46439;51.164;13.572;2024-03-02T08:31:32;99389.56;;;13.06;97.93
60611;BME280;46439;51.164;13.572;2024-03-02T08:34:00;99386.36;;;13.00;97.62
60611;BME280;46439;51.164;13.572;2024-03-02T08:36:28;99389.77;;;12.98;97.34
60611;BME280;46439;51.164;13.572;2024-03-02T08:38:56;99390.36;;;13.11;97.26
60611;BME280;46439;51.164;13.572;2024-03-02T08:41:24;99391.02;;;13.11;97.19
60611;BME280;46439;51.164;13.572;2024-03-02T08:43:52;99391.95;;;13.07;97.11
60611;BME280;46439;51.164;13.572;2024-03-02T08:46:21;99394.02;;;13.12;97.01
60611;BME280;46439;51.164;13.572;2024-03-02T08:48:49;99401.11;;;13.14;97.08
60611;BME280;46439;51.164;13.572;2024-03-02T08:51:17;99402.79;;;13.12;96.87
60611;BME280;46439;51.164;13.572;2024-03-02T08:53:45;99409.08;;;13.11;96.73
60611;BME280;46439;51.164;13.572;2024-03-02T08:56:13;99405.90;;;13.16;96.64
60611;BME280;46439;51.164;13.572;2024-03-02T08:58:50;99408.41;;;13.13;96.62
60611;BME280;46439;51.164;13.572;2024-03-02T09:01:19;99407.70;;;13.07;96.59
60611;BME280;46439;51.164;13.572;2024-03-02T09:03:47;99404.23;;;13.19;96.51
60611;BME280;46439;51.164;13.572;2024-03-02T09:06:17;99407.96;;;13.30;96.61
60611;BME280;46439;51.164;13.572;2024-03-02T09:08:45;99410.89;;;13.38;96.48
60611;BME280;46439;51.164;13.572;2024-03-02T09:11:13;99410.63;;;13.39;96.06
60611;BME280;46439;51.164;13.572;2024-03-02T09:13:41;99401.10;;;13.36;93.92
60611;BME280;46439;51.164;13.572;2024-03-02T09:16:10;99392.74;;;13.37;91.61
60611;BME280;46439;51.164;13.572;2024-03-02T09:18:39;99385.32;;;13.36;90.37
60611;BME280;46439;51.164;13.572;2024-03-02T09:21:07;99382.40;;;13.35;89.01
60611;BME280;46439;51.164;13.572;2024-03-02T09:23:35;99382.05;;;13.25;88.36
60611;BME280;46439;51.164;13.572;2024-03-02T09:26:04;99386.88;;;13.28;87.87
60611;BME280;46439;51.164;13.572;2024-03-02T09:28:32;99387.10;;;13.29;87.56
60611;BME280;46439;51.164;13.572;2024-03-02T09:31:01;99384.91;;;13.52;87.35
60611;BME280;46439;51.164;13.572;2024-03-02T09:33:30;99391.48;;;13.66;87.16
60611;BME280;46439;51.164;13.572;2024-03-02T09:35:58;99388.52;;;13.68;87.10
60611;BME280;46439;51.164;13.572;2024-03-02T09:38:26;99389.23;;;13.61;87.01
60611;BME280;46439;51.164;13.572;2024-03-02T09:40:54;99396.04;;;13.64;87.15
60611;BME280;46439;51.164;13.572;2024-03-02T09:43:22;99397.23;;;13.68;87.22
60611;BME280;46439;51.164;13.572;2024-03-02T09:45:52;99397.62;;;13.63;87.34
60611;BME280;46439;51.164;13.572;2024-03-02T09:48:20;99397.63;;;13.62;87.35
60611;BME280;46439;51.164;13.572;2024-03-02T09:50:48;99400.45;;;13.66;87.41
60611;BME280;46439;51.164;13.572;2024-03-02T09:53:17;99403.06;;;13.73;87.23
60611;BME280;46439;51.164;13.572;2024-03-02T09:55:48;99407.80;;;13.77;87.35
60611;BME280;46439;51.164;13.572;2024-03-02T09:58:16;99406.48;;;13.78;87.35
60611;BME280;46439;51.164;13.572;2024-03-02T10:00:44;99402.90;;;13.69;87.55
60611;BME280;46439;51.164;13.572;2024-03-02T10:03:14;99399.73;;;13.65;87.53
60611;BME280;46439;51.164;13.572;2024-03-02T10:05:43;99399.66;;;13.61;87.42
60611;BME280;46439;51.164;13.572;2024-03-02T10:08:11;99394.51;;;13.73;87.41
60611;BME280;46439;51.164;13.572;2024-03-02T10:10:40;99394.00;;;13.74;87.10
60611;BME280;46439;51.164;13.572;2024-03-02T10:13:11;99396.80;;;13.73;86.56
60611;BME280;46439;51.164;13.572;2024-03-02T10:15:41;99393.53;;;13.64;86.03
60611;BME280;46439;51.164;13.572;2024-03-02T10:18:11;99386.24;;;13.53;85.39
60611;BME280;46439;51.164;13.572;2024-03-02T10:20:40;99381.24;;;13.52;85.16
60611;BME280;46439;51.164;13.572;2024-03-02T10:23:15;99378.17;;;13.66;84.69
60611;BME280;46439;51.164;13.572;2024-03-02T10:25:45;99372.62;;;14.00;84.06
60611;BME280;46439;51.164;13.572;2024-03-02T10:28:13;99370.80;;;14.13;83.39
60611;BME280;46439;51.164;13.572;2024-03-02T10:30:43;99366.66;;;14.32;83.08
60611;BME280;46439;51.164;13.572;2024-03-02T10:33:15;99358.84;;;14.40;82.76
60611;BME280;46439;51.164;13.572;2024-03-02T10:35:45;99360.77;;;14.46;82.78
60611;BME280;46439;51.164;13.572;2024-03-02T10:38:16;99364.23;;;14.52;82.82
60611;BME280;46439;51.164;13.572;2024-03-02T10:40:48;99361.71;;;14.54;82.91
60611;BME280;46439;51.164;13.572;2024-03-02T10:43:20;99358.70;;;14.61;82.98
60611;BME280;46439;51.164;13.572;2024-03-02T10:45:50;99358.11;;;14.66;82.97
60611;BME280;46439;51.164;13.572;2024-03-02T10:48:19;99358.10;;;14.67;83.03
60611;BME280;46439;51.164;13.572;2024-03-02T10:50:49;99360.64;;;14.69;83.08
60611;BME280;46439;51.164;13.572;2024-03-02T10:53:18;99357.98;;;14.67;83.01
60611;BME280;46439;51.164;13.572;2024-03-02T10:55:53;99354.67;;;14.67;82.98
60611;BME280;46439;51.164;13.572;2024-03-02T10:58:40;99355.62;;;14.69;82.83
60611;BME280;46439;51.164;13.572;2024-03-02T11:01:20;99350.63;;;14.68;82.68
60611;BME280;46439;51.164;13.572;2024-03-02T11:03:55;99346.13;;;14.65;82.54
60611;BME280;46439;51.164;13.572;2024-03-02T11:06:43;99345.21;;;14.74;82.55
60611;BME280;46439;51.164;13.572;2024-03-02T11:09:28;99341.45;;;14.76;82.63
60611;BME280;46439;51.164;13.572;2024-03-02T11:12:06;99342.35;;;14.84;82.48
60611;BME280;46439;51.164;13.572;2024-03-02T11:14:40;99342.30;;;14.74;82.28
60611;BME280;46439;51.164;13.572;2024-03-02T11:17:13;99334.84;;;14.75;82.06
60611;BME280;46439;51.164;13.572;2024-03-02T11:19:44;99333.63;;;14.66;81.86
60611;BME280;46439;51.164;13.572;2024-03-02T11:22:13;99336.69;;;14.64;81.68
60611;BME280;46439;51.164;13.572;2024-03-02T11:24:49;99337.20;;;14.73;81.46
60611;BME280;46439;51.164;13.572;2024-03-02T11:30:50;99336.66;;;14.91;81.39
60611;BME280;46439;51.164;13.572;2024-03-02T11:33:24;99337.74;;;14.94;81.42
60611;BME280;46439;51.164;13.572;2024-03-02T11:35:53;99337.76;;;14.92;81.33
60611;BME280;46439;51.164;13.572;2024-03-02T11:38:23;99340.91;;;14.85;81.25
60611;BME280;46439;51.164;13.572;2024-03-02T11:40:55;99336.00;;;14.83;81.14
60611;BME280;46439;51.164;13.572;2024-03-02T11:43:23;99334.61;;;14.84;81.17
60611;BME280;46439;51.164;13.572;2024-03-02T11:45:59;99327.13;;;14.89;80.93
60611;BME280;46439;51.164;13.572;2024-03-02T11:48:28;99333.23;;;14.91;80.90
60611;BME280;46439;51.164;13.572;2024-03-02T11:51:00;99330.79;;;14.95;80.88
60611;BME280;46439;51.164;13.572;2024-03-02T11:53:30;99330.68;;;14.98;80.63
60611;BME280;46439;51.164;13.572;2024-03-02T11:56:00;99328.09;;;15.02;80.56
60611;BME280;46439;51.164;13.572;2024-03-02T11:58:29;99328.48;;;15.02;80.53
60611;BME280;46439;51.164;13.572;2024-03-02T12:00:58;99333.82;;;15.08;80.32
60611;BME280;46439;51.164;13.572;2024-03-02T12:03:26;99330.02;;;15.10;80.31
60611;BME280;46439;51.164;13.572;2024-03-02T12:05:56;99325.98;;;15.09;80.28
60611;BME280;46439;51.164;13.572;2024-03-02T12:08:24;99322.85;;;15.10;80.28
60611;BME280;46439;51.164;13.572;2024-03-02T12:10:59;99322.45;;;15.12;80.24
60611;BME280;46439;51.164;13.572;2024-03-02T12:13:28;99323.23;;;15.16;80.13
60611;BME280;46439;51.164;13.572;2024-03-02T12:15:57;99321.48;;;15.24;80.04
60611;BME280;46439;51.164;13.572;2024-03-02T12:18:25;99316.23;;;15.30;79.90
60611;BME280;46439;51.164;13.572;2024-03-02T12:20:54;99313.60;;;15.35;79.58
60611;BME280;46439;51.164;13.572;2024-03-02T12:23:25;99309.89;;;15.41;79.46
60611;BME280;46439;51.164;13.572;2024-03-02T12:25:54;99308.23;;;15.46;79.26
60611;BME280;46439;51.164;13.572;2024-03-02T12:28:23;99308.02;;;15.52;79.00
60611;BME280;46439;51.164;13.572;2024-03-02T12:30:51;99307.47;;;15.51;78.60
60611;BME280;46439;51.164;13.572;2024-03-02T12:33:20;99305.14;;;15.57;78.12
60611;BME280;46439;51.164;13.572;2024-03-02T12:35:50;99301.66;;;15.65;77.01
60611;BME280;46439;51.164;13.572;2024-03-02T12:38:18;99300.13;;;15.67;76.36
60611;BME280;46439;51.164;13.572;2024-03-02T12:40:49;99296.15;;;15.67;76.05
60611;BME280;46439;51.164;13.572;2024-03-02T12:43:17;99293.02;;;15.67;75.69
60611;BME280;46439;51.164;13.572;2024-03-02T12:45:52;99292.72;;;15.72;75.24
60611;BME280;46439;51.164;13.572;2024-03-02T12:48:20;99293.87;;;15.81;74.82
60611;BME280;46439;51.164;13.572;2024-03-02T12:50:49;99289.16;;;15.82;74.45
60611;BME280;46439;51.164;13.572;2024-03-02T12:53:17;99283.84;;;15.89;73.84
60611;BME280;46439;51.164;13.572;2024-03-02T12:55:46;99285.52;;;15.94;73.58
60611;BME280;46439;51.164;13.572;2024-03-02T12:58:20;99283.08;;;15.93;73.45